Terminal Aerodrome Forecast
Issued by NWS Memphis, TN

Home | Current Version | Previous Version | Text Only | Print | Product List | Glossary On
Versions: 1 2 3 4 5 6 7 8 9 10 11 12 13 14 15 16 17 18 19 20 21 22 23
000
FTUS44 KMEG 021400 AAA
TAFMKL
TAF AMD
KMKL 021450Z 0215/0312 24007KT P6SM VCSH SCT015 BKN040
      TEMPO 0215/0217 -SHRA BKN015
     FM021700 22008KT P6SM VCSH SCT020 BKN040 OVC100
     FM022000 22008KT P6SM BKN040
     FM030000 VRB03KT P6SM SCT040 BKN150
     FM030600 VRB03KT 4SM BR SCT040
      TEMPO 0309/0312 1SM BR SCT005=

USA.gov is the U.S. government's official web portal to all federal, state and local government web resources and services.